sensor_id;sensor_type;location;lat;lon;timestamp;temperature;humidity
17172;DHT22;8701;50.150;8.756;2024-01-11T00:00:27;-0.70;99.90
17172;DHT22;8701;50.150;8.756;2024-01-11T00:04:30;-0.70;99.90
17172;DHT22;8701;50.150;8.756;2024-01-11T00:08:33;-0.70;99.90
17172;DHT22;8701;50.150;8.756;2024-01-11T00:12:35;-0.70;99.90
17172;DHT22;8701;50.150;8.756;2024-01-11T00:16:38;-0.80;99.90
17172;DHT22;8701;50.150;8.756;2024-01-11T00:20:41;-0.80;99.90
17172;DHT22;8701;50.150;8.756;2024-01-11T00:24:44;-0.70;99.90
17172;DHT22;8701;50.150;8.756;2024-01-11T00:28:46;-0.70;99.90
17172;DHT22;8701;50.150;8.756;2024-01-11T00:32:49;-0.80;99.90
17172;DHT22;8701;50.150;8.756;2024-01-11T00:36:52;-1.00;99.90
17172;DHT22;8701;50.150;8.756;2024-01-11T00:40:55;-1.00;99.90
17172;DHT22;8701;50.150;8.756;2024-01-11T00:44:57;-1.20;99.90
17172;DHT22;8701;50.150;8.756;2024-01-11T00:48:59;-1.20;99.90
17172;DHT22;8701;50.150;8.756;2024-01-11T00:53:03;-1.20;99.90
17172;DHT22;8701;50.150;8.756;2024-01-11T00:57:05;-1.20;99.90
17172;DHT22;8701;50.150;8.756;2024-01-11T01:01:08;-1.30;99.90
17172;DHT22;8701;50.150;8.756;2024-01-11T01:05:11;-1.30;99.90
17172;DHT22;8701;50.150;8.756;2024-01-11T01:09:15;-1.30;99.90
17172;DHT22;8701;50.150;8.756;2024-01-11T01:13:18;-1.20;99.90
17172;DHT22;8701;50.150;8.756;2024-01-11T01:17:21;-1.00;99.90
17172;DHT22;8701;50.150;8.756;2024-01-11T01:21:23;-1.00;99.90
17172;DHT22;8701;50.150;8.756;2024-01-11T01:25:27;-1.20;99.90
17172;DHT22;8701;50.150;8.756;2024-01-11T01:29:30;-1.20;99.90
17172;DHT22;8701;50.150;8.756;2024-01-11T01:33:32;-1.30;99.90
17172;DHT22;8701;50.150;8.756;2024-01-11T01:37:34;-1.30;99.90
17172;DHT22;8701;50.150;8.756;2024-01-11T01:41:38;-1.30;99.90
17172;DHT22;8701;50.150;8.756;2024-01-11T01:45:40;-1.30;99.90
17172;DHT22;8701;50.150;8.756;2024-01-11T01:49:43;-1.30;99.90
17172;DHT22;8701;50.150;8.756;2024-01-11T01:53:45;-1.30;99.90
17172;DHT22;8701;50.150;8.756;2024-01-11T01:57:50;-1.30;99.90
17172;DHT22;8701;50.150;8.756;2024-01-11T02:01:52;-1.30;99.90
17172;DHT22;8701;50.150;8.756;2024-01-11T02:05:55;-1.30;99.90
17172;DHT22;8701;50.150;8.756;2024-01-11T02:09:58;-1.30;99.90
17172;DHT22;8701;50.150;8.756;2024-01-11T02:14:02;-1.30;99.90
17172;DHT22;8701;50.150;8.756;2024-01-11T02:18:05;-1.30;99.90
17172;DHT22;8701;50.150;8.756;2024-01-11T02:22:12;-1.40;99.90
17172;DHT22;8701;50.150;8.756;2024-01-11T02:26:18;-1.50;99.90
17172;DHT22;8701;50.150;8.756;2024-01-11T02:30:23;-1.40;99.90
17172;DHT22;8701;50.150;8.756;2024-01-11T02:34:27;-1.40;99.90
17172;DHT22;8701;50.150;8.756;2024-01-11T02:38:30;-1.40;99.90
17172;DHT22;8701;50.150;8.756;2024-01-11T02:42:35;-1.50;99.90
17172;DHT22;8701;50.150;8.756;2024-01-11T02:46:37;-1.50;99.90
17172;DHT22;8701;50.150;8.756;2024-01-11T02:50:40;-1.50;99.90
17172;DHT22;8701;50.150;8.756;2024-01-11T02:54:42;-1.60;99.90
17172;DHT22;8701;50.150;8.756;2024-01-11T02:58:46;-1.70;99.90
17172;DHT22;8701;50.150;8.756;2024-01-11T03:02:48;-1.70;99.90
17172;DHT22;8701;50.150;8.756;2024-01-11T03:06:50;-1.70;99.90
17172;DHT22;8701;50.150;8.756;2024-01-11T03:10:52;-1.70;99.90
17172;DHT22;8701;50.150;8.756;2024-01-11T03:14:56;-1.70;99.90
17172;DHT22;8701;50.150;8.756;2024-01-11T03:18:58;-1.70;99.90
17172;DHT22;8701;50.150;8.756;2024-01-11T03:23:00;-1.70;99.90
17172;DHT22;8701;50.150;8.756;2024-01-11T03:27:03;-1.70;99.90
17172;DHT22;8701;50.150;8.756;2024-01-11T03:31:09;-1.60;99.90
17172;DHT22;8701;50.150;8.756;2024-01-11T03:35:11;-1.70;99.90
17172;DHT22;8701;50.150;8.756;2024-01-11T03:39:13;-1.80;99.90
17172;DHT22;8701;50.150;8.756;2024-01-11T03:43:17;-1.80;99.90
17172;DHT22;8701;50.150;8.756;2024-01-11T03:47:21;-1.80;99.90
17172;DHT22;8701;50.150;8.756;2024-01-11T03:51:23;-1.70;99.90
17172;DHT22;8701;50.150;8.756;2024-01-11T03:55:25;-1.60;99.90
17172;DHT22;8701;50.150;8.756;2024-01-11T03:59:27;-1.70;99.90
17172;DHT22;8701;50.150;8.756;2024-01-11T04:03:31;-1.70;99.90
17172;DHT22;8701;50.150;8.756;2024-01-11T04:07:33;-1.70;99.90
17172;DHT22;8701;50.150;8.756;2024-01-11T04:11:35;-1.60;99.90
17172;DHT22;8701;50.150;8.756;2024-01-11T04:15:38;-1.60;99.90
17172;DHT22;8701;50.150;8.756;2024-01-11T04:19:42;-1.70;99.90
17172;DHT22;8701;50.150;8.756;2024-01-11T04:23:45;-1.70;99.90
17172;DHT22;8701;50.150;8.756;2024-01-11T04:27:47;-1.70;99.90
17172;DHT22;8701;50.150;8.756;2024-01-11T04:31:49;-1.80;99.90
17172;DHT22;8701;50.150;8.756;2024-01-11T04:35:53;-1.80;99.90
17172;DHT22;8701;50.150;8.756;2024-01-11T04:39:55;-1.80;99.90
17172;DHT22;8701;50.150;8.756;2024-01-11T04:44:00;-1.80;99.90
17172;DHT22;8701;50.150;8.756;2024-01-11T04:48:03;-1.80;99.90
17172;DHT22;8701;50.150;8.756;2024-01-11T04:52:07;-1.90;99.90
17172;DHT22;8701;50.150;8.756;2024-01-11T04:56:11;-1.80;99.90
17172;DHT22;8701;50.150;8.756;2024-01-11T05:00:13;-1.80;99.90
17172;DHT22;8701;50.150;8.756;2024-01-11T05:04:16;-1.80;99.90
17172;DHT22;8701;50.150;8.756;2024-01-11T05:08:19;-1.80;99.90
17172;DHT22;8701;50.150;8.756;2024-01-11T05:12:22;-1.90;99.90
17172;DHT22;8701;50.150;8.756;2024-01-11T05:16:25;-2.00;99.90
17172;DHT22;8701;50.150;8.756;2024-01-11T05:20:28;-2.00;99.90
17172;DHT22;8701;50.150;8.756;2024-01-11T05:24:32;-2.00;99.90
17172;DHT22;8701;50.150;8.756;2024-01-11T05:28:34;-2.00;99.90
17172;DHT22;8701;50.150;8.756;2024-01-11T05:32:36;-1.70;99.90
17172;DHT22;8701;50.150;8.756;2024-01-11T05:36:39;-1.80;99.90
17172;DHT22;8701;50.150;8.756;2024-01-11T05:40:42;-1.90;99.90
17172;DHT22;8701;50.150;8.756;2024-01-11T05:44:44;-1.70;99.90
17172;DHT22;8701;50.150;8.756;2024-01-11T05:48:47;-2.10;99.90
17172;DHT22;8701;50.150;8.756;2024-01-11T05:52:49;-2.00;99.90
17172;DHT22;8701;50.150;8.756;2024-01-11T05:56:53;-2.00;99.90
17172;DHT22;8701;50.150;8.756;2024-01-11T06:00:57;-2.00;99.90
17172;DHT22;8701;50.150;8.756;2024-01-11T06:04:59;-2.00;99.90
17172;DHT22;8701;50.150;8.756;2024-01-11T06:09:01;-2.00;99.90
17172;DHT22;8701;50.150;8.756;2024-01-11T06:13:06;-2.10;99.90
17172;DHT22;8701;50.150;8.756;2024-01-11T06:17:11;-1.90;99.90
17172;DHT22;8701;50.150;8.756;2024-01-11T06:21:13;-2.10;99.90
17172;DHT22;8701;50.150;8.756;2024-01-11T06:25:16;-2.10;99.90
17172;DHT22;8701;50.150;8.756;2024-01-11T06:29:21;-2.10;99.90
17172;DHT22;8701;50.150;8.756;2024-01-11T06:33:23;-1.80;99.90
17172;DHT22;8701;50.150;8.756;2024-01-11T06:37:25;-2.10;99.90
17172;DHT22;8701;50.150;8.756;2024-01-11T06:41:27;-2.20;99.90
17172;DHT22;8701;50.150;8.756;2024-01-11T06:45:31;-2.30;99.90
17172;DHT22;8701;50.150;8.756;2024-01-11T06:49:34;-2.40;99.90
17172;DHT22;8701;50.150;8.756;2024-01-11T06:53:36;-2.30;99.90
17172;DHT22;8701;50.150;8.756;2024-01-11T06:57:38;-2.20;99.90
17172;DHT22;8701;50.150;8.756;2024-01-11T07:01:42;-2.30;99.90
17172;DHT22;8701;50.150;8.756;2024-01-11T07:05:44;-2.40;99.90
17172;DHT22;8701;50.150;8.756;2024-01-11T07:09:47;-2.40;99.90
17172;DHT22;8701;50.150;8.756;2024-01-11T07:13:49;-2.30;99.90
17172;DHT22;8701;50.150;8.756;2024-01-11T07:17:52;-2.40;99.90
17172;DHT22;8701;50.150;8.756;2024-01-11T07:21:55;-2.20;99.90
17172;DHT22;8701;50.150;8.756;2024-01-11T07:25:57;-2.30;99.90
17172;DHT22;8701;50.150;8.756;2024-01-11T07:30:00;-2.20;99.90
17172;DHT22;8701;50.150;8.756;2024-01-11T07:34:04;-2.20;99.90
17172;DHT22;8701;50.150;8.756;2024-01-11T07:38:07;-2.20;99.90
17172;DHT22;8701;50.150;8.756;2024-01-11T07:42:09;-2.20;99.90
17172;DHT22;8701;50.150;8.756;2024-01-11T07:46:11;-2.20;99.90
17172;DHT22;8701;50.150;8.756;2024-01-11T07:50:15;-2.30;99.90
17172;DHT22;8701;50.150;8.756;2024-01-11T07:54:17;-2.20;99.90
17172;DHT22;8701;50.150;8.756;2024-01-11T07:58:19;-2.20;99.90
17172;DHT22;8701;50.150;8.756;2024-01-11T08:02:22;-2.20;99.90
17172;DHT22;8701;50.150;8.756;2024-01-11T08:06:26;-2.30;99.90
17172;DHT22;8701;50.150;8.756;2024-01-11T08:10:28;-2.20;99.90
17172;DHT22;8701;50.150;8.756;2024-01-11T08:14:31;-2.20;99.90
17172;DHT22;8701;50.150;8.756;2024-01-11T08:18:33;-2.20;99.90
17172;DHT22;8701;50.150;8.756;2024-01-11T08:22:38;-1.90;99.90
17172;DHT22;8701;50.150;8.756;2024-01-11T08:26:41;-2.00;99.90
17172;DHT22;8701;50.150;8.756;2024-01-11T08:30:43;-2.00;99.90
17172;DHT22;8701;50.150;8.756;2024-01-11T08:34:45;-1.90;99.90
17172;DHT22;8701;50.150;8.756;2024-01-11T08:38:49;-1.80;99.90
17172;DHT22;8701;50.150;8.756;2024-01-11T08:42:53;-1.70;99.90
17172;DHT22;8701;50.150;8.756;2024-01-11T08:46:56;-1.60;99.90
17172;DHT22;8701;50.150;8.756;2024-01-11T08:50:59;-1.50;99.90
17172;DHT22;8701;50.150;8.756;2024-01-11T08:55:04;-1.30;99.90
17172;DHT22;8701;50.150;8.756;2024-01-11T08:59:07;-1.40;99.90
17172;DHT22;8701;50.150;8.756;2024-01-11T09:03:09;-1.20;99.90
17172;DHT22;8701;50.150;8.756;2024-01-11T09:07:13;-1.20;99.90
17172;DHT22;8701;50.150;8.756;2024-01-11T09:11:18;-1.20;99.90
17172;DHT22;8701;50.150;8.756;2024-01-11T09:15:20;-1.10;99.90
17172;DHT22;8701;50.150;8.756;2024-01-11T09:19:22;-1.00;99.90
17172;DHT22;8701;50.150;8.756;2024-01-11T09:23:25;-1.00;99.90
17172;DHT22;8701;50.150;8.756;2024-01-11T09:27:28;-1.00;99.90
17172;DHT22;8701;50.150;8.756;2024-01-11T09:31:31;-0.80;99.90
17172;DHT22;8701;50.150;8.756;2024-01-11T09:35:34;-0.70;99.90
17172;DHT22;8701;50.150;8.756;2024-01-11T09:39:37;-0.50;99.90
17172;DHT22;8701;50.150;8.756;2024-01-11T09:43:42;-0.10;99.90
17172;DHT22;8701;50.150;8.756;2024-01-11T09:47:44;0.00;99.90
17172;DHT22;8701;50.150;8.756;2024-01-11T09:51:48;0.20;99.90
17172;DHT22;8701;50.150;8.756;2024-01-11T09:55:52;0.30;99.90
17172;DHT22;8701;50.150;8.756;2024-01-11T09:59:57;0.40;99.90
17172;DHT22;8701;50.150;8.756;2024-01-11T10:03:59;0.40;99.90
17172;DHT22;8701;50.150;8.756;2024-01-11T10:08:02;0.60;99.90
17172;DHT22;8701;50.150;8.756;2024-01-11T10:12:05;0.70;99.90
17172;DHT22;8701;50.150;8.756;2024-01-11T10:16:10;0.80;99.90
17172;DHT22;8701;50.150;8.756;2024-01-11T10:20:14;0.80;99.90
17172;DHT22;8701;50.150;8.756;2024-01-11T10:24:18;0.80;99.90
17172;DHT22;8701;50.150;8.756;2024-01-11T10:28:21;1.00;99.90
17172;DHT22;8701;50.150;8.756;2024-01-11T10:32:28;1.30;99.90
17172;DHT22;8701;50.150;8.756;2024-01-11T10:36:30;1.60;99.90
17172;DHT22;8701;50.150;8.756;2024-01-11T10:40:33;2.00;99.90
17172;DHT22;8701;50.150;8.756;2024-01-11T10:44:38;2.10;99.90
17172;DHT22;8701;50.150;8.756;2024-01-11T10:48:50;2.20;99.90
17172;DHT22;8701;50.150;8.756;2024-01-11T10:53:02;2.40;99.90
17172;DHT22;8701;50.150;8.756;2024-01-11T10:57:05;2.50;99.90
17172;DHT22;8701;50.150;8.756;2024-01-11T11:01:09;2.70;99.90
17172;DHT22;8701;50.150;8.756;2024-01-11T11:05:15;2.80;99.90
17172;DHT22;8701;50.150;8.756;2024-01-11T11:09:18;2.90;99.90
17172;DHT22;8701;50.150;8.756;2024-01-11T11:13:22;2.90;99.90
17172;DHT22;8701;50.150;8.756;2024-01-11T11:17:24;3.20;99.90
17172;DHT22;8701;50.150;8.756;2024-01-11T11:21:29;3.50;99.90
17172;DHT22;8701;50.150;8.756;2024-01-11T11:25:32;3.50;99.90
17172;DHT22;8701;50.150;8.756;2024-01-11T11:29:34;3.70;99.90
17172;DHT22;8701;50.150;8.756;2024-01-11T11:33:36;4.10;99.90
17172;DHT22;8701;50.150;8.756;2024-01-11T11:37:40;4.60;99.90
17172;DHT22;8701;50.150;8.756;2024-01-11T11:41:44;5.00;99.90
17172;DHT22;8701;50.150;8.756;2024-01-11T11:45:47;5.60;99.90
17172;DHT22;8701;50.150;8.756;2024-01-11T11:50:04;6.10;99.90
17172;DHT22;8701;50.150;8.756;2024-01-11T11:54:08;6.60;99.90
17172;DHT22;8701;50.150;8.756;2024-01-11T11:58:13;6.90;99.90
17172;DHT22;8701;50.150;8.756;2024-01-11T12:02:16;7.30;99.90
17172;DHT22;8701;50.150;8.756;2024-01-11T12:06:20;7.90;99.90
17172;DHT22;8701;50.150;8.756;2024-01-11T12:10:26;8.60;98.80
17172;DHT22;8701;50.150;8.756;2024-01-11T12:14:28;9.10;97.80
17172;DHT22;8701;50.150;8.756;2024-01-11T12:18:30;9.60;97.70
17172;DHT22;8701;50.150;8.756;2024-01-11T12:22:33;10.20;94.60
17172;DHT22;8701;50.150;8.756;2024-01-11T12:26:37;10.60;93.10
17172;DHT22;8701;50.150;8.756;2024-01-11T12:30:40;11.00;92.50
17172;DHT22;8701;50.150;8.756;2024-01-11T12:34:44;11.40;92.00
17172;DHT22;8701;50.150;8.756;2024-01-11T12:38:47;11.60;91.40
17172;DHT22;8701;50.150;8.756;2024-01-11T12:42:51;11.70;91.70
17172;DHT22;8701;50.150;8.756;2024-01-11T12:46:54;11.70;90.50
17172;DHT22;8701;50.150;8.756;2024-01-11T12:50:56;12.00;91.10
17172;DHT22;8701;50.150;8.756;2024-01-11T12:54:58;12.20;89.60
17172;DHT22;8701;50.150;8.756;2024-01-11T12:59:07;12.20;86.20
17172;DHT22;8701;50.150;8.756;2024-01-11T13:03:10;12.50;86.50
17172;DHT22;8701;50.150;8.756;2024-01-11T13:07:12;12.70;85.80
17172;DHT22;8701;50.150;8.756;2024-01-11T13:11:17;12.80;85.40
17172;DHT22;8701;50.150;8.756;2024-01-11T13:15:23;12.60;86.30
17172;DHT22;8701;50.150;8.756;2024-01-11T13:19:25;12.00;84.00
17172;DHT22;8701;50.150;8.756;2024-01-11T13:23:27;11.50;84.10
17172;DHT22;8701;50.150;8.756;2024-01-11T13:27:30;10.70;87.60
17172;DHT22;8701;50.150;8.756;2024-01-11T13:31:35;9.80;88.00
17172;DHT22;8701;50.150;8.756;2024-01-11T13:35:38;9.20;89.10
17172;DHT22;8701;50.150;8.756;2024-01-11T13:39:40;8.80;89.90
17172;DHT22;8701;50.150;8.756;2024-01-11T13:43:43;9.20;90.20
17172;DHT22;8701;50.150;8.756;2024-01-11T13:47:46;9.30;90.50
17172;DHT22;8701;50.150;8.756;2024-01-11T13:51:49;9.30;90.30
17172;DHT22;8701;50.150;8.756;2024-01-11T13:55:51;9.30;89.80
17172;DHT22;8701;50.150;8.756;2024-01-11T13:59:53;9.30;89.90
17172;DHT22;8701;50.150;8.756;2024-01-11T14:03:57;9.50;89.60
17172;DHT22;8701;50.150;8.756;2024-01-11T14:07:59;9.60;90.00
17172;DHT22;8701;50.150;8.756;2024-01-11T14:12:02;9.00;90.20
17172;DHT22;8701;50.150;8.756;2024-01-11T14:16:05;8.60;91.00
17172;DHT22;8701;50.150;8.756;2024-01-11T14:20:10;8.50;90.70
17172;DHT22;8701;50.150;8.756;2024-01-11T14:24:14;8.40;91.00
17172;DHT22;8701;50.150;8.756;2024-01-11T14:28:16;8.10;90.90
17172;DHT22;8701;50.150;8.756;2024-01-11T14:32:19;7.90;91.10
17172;DHT22;8701;50.150;8.756;2024-01-11T14:36:22;7.80;91.70
17172;DHT22;8701;50.150;8.756;2024-01-11T14:40:25;7.40;91.60
17172;DHT22;8701;50.150;8.756;2024-01-11T14:44:27;7.10;92.20
17172;DHT22;8701;50.150;8.756;2024-01-11T14:48:29;6.70;92.30
17172;DHT22;8701;50.150;8.756;2024-01-11T14:52:34;6.60;93.00
17172;DHT22;8701;50.150;8.756;2024-01-11T14:56:36;6.50;93.50
17172;DHT22;8701;50.150;8.756;2024-01-11T15:00:39;6.40;93.70
17172;DHT22;8701;50.150;8.756;2024-01-11T15:04:41;6.10;94.00
17172;DHT22;8701;50.150;8.756;2024-01-11T15:08:45;6.00;94.40
17172;DHT22;8701;50.150;8.756;2024-01-11T15:12:48;5.90;94.70
17172;DHT22;8701;50.150;8.756;2024-01-11T15:16:50;5.90;94.60
17172;DHT22;8701;50.150;8.756;2024-01-11T15:20:52;5.80;95.10
17172;DHT22;8701;50.150;8.756;2024-01-11T15:24:56;5.70;95.20
17172;DHT22;8701;50.150;8.756;2024-01-11T15:28:58;5.70;96.10
17172;DHT22;8701;50.150;8.756;2024-01-11T15:33:00;5.40;96.10
17172;DHT22;8701;50.150;8.756;2024-01-11T15:37:03;5.30;96.90
17172;DHT22;8701;50.150;8.756;2024-01-11T15:41:07;5.10;97.10
17172;DHT22;8701;50.150;8.756;2024-01-11T15:45:09;5.00;97.80
17172;DHT22;8701;50.150;8.756;2024-01-11T15:49:12;4.80;98.10
17172;DHT22;8701;50.150;8.756;2024-01-11T15:53:14;4.70;98.50
17172;DHT22;8701;50.150;8.756;2024-01-11T15:57:18;4.50;98.80
17172;DHT22;8701;50.150;8.756;2024-01-11T16:01:20;4.40;99.40
17172;DHT22;8701;50.150;8.756;2024-01-11T16:05:22;4.20;99.70
17172;DHT22;8701;50.150;8.756;2024-01-11T16:09:26;4.00;99.90
17172;DHT22;8701;50.150;8.756;2024-01-11T16:13:30;3.90;99.90
17172;DHT22;8701;50.150;8.756;2024-01-11T16:17:32;3.80;99.90
17172;DHT22;8701;50.150;8.756;2024-01-11T16:21:34;3.70;99.90
17172;DHT22;8701;50.150;8.756;2024-01-11T16:25:37;3.60;99.90
17172;DHT22;8701;50.150;8.756;2024-01-11T16:29:41;3.50;99.90
17172;DHT22;8701;50.150;8.756;2024-01-11T16:33:44;3.40;99.90
17172;DHT22;8701;50.150;8.756;2024-01-11T16:37:47;3.30;99.90
17172;DHT22;8701;50.150;8.756;2024-01-11T16:41:49;3.20;99.90
17172;DHT22;8701;50.150;8.756;2024-01-11T16:45:53;3.10;99.90
17172;DHT22;8701;50.150;8.756;2024-01-11T16:49:56;3.10;99.90
17172;DHT22;8701;50.150;8.756;2024-01-11T16:53:58;3.00;99.90
17172;DHT22;8701;50.150;8.756;2024-01-11T16:58:01;2.90;99.90
17172;DHT22;8701;50.150;8.756;2024-01-11T17:02:05;2.90;99.90
17172;DHT22;8701;50.150;8.756;2024-01-11T17:06:07;2.80;99.90
17172;DHT22;8701;50.150;8.756;2024-01-11T17:10:10;2.70;99.90
17172;DHT22;8701;50.150;8.756;2024-01-11T17:14:13;2.60;99.90
17172;DHT22;8701;50.150;8.756;2024-01-11T17:18:17;2.30;99.90
17172;DHT22;8701;50.150;8.756;2024-01-11T17:22:19;2.30;99.90
17172;DHT22;8701;50.150;8.756;2024-01-11T17:26:22;2.40;99.90
17172;DHT22;8701;50.150;8.756;2024-01-11T17:30:25;2.30;99.90
17172;DHT22;8701;50.150;8.756;2024-01-11T17:34:28;2.20;99.90
17172;DHT22;8701;50.150;8.756;2024-01-11T17:38:31;2.20;99.90
17172;DHT22;8701;50.150;8.756;2024-01-11T17:42:33;2.20;99.90
17172;DHT22;8701;50.150;8.756;2024-01-11T17:46:35;2.10;99.90
17172;DHT22;8701;50.150;8.756;2024-01-11T17:50:40;2.20;99.90
17172;DHT22;8701;50.150;8.756;2024-01-11T17:54:42;2.30;99.90
17172;DHT22;8701;50.150;8.756;2024-01-11T17:58:44;2.30;99.90
17172;DHT22;8701;50.150;8.756;2024-01-11T18:02:46;2.30;99.90
17172;DHT22;8701;50.150;8.756;2024-01-11T18:06:50;2.30;99.90
17172;DHT22;8701;50.150;8.756;2024-01-11T18:10:52;2.40;99.90
17172;DHT22;8701;50.150;8.756;2024-01-11T18:14:55;2.50;99.90
17172;DHT22;8701;50.150;8.756;2024-01-11T18:18:57;2.50;99.90
17172;DHT22;8701;50.150;8.756;2024-01-11T18:23:02;2.50;99.90
17172;DHT22;8701;50.150;8.756;2024-01-11T18:27:05;2.50;99.90
17172;DHT22;8701;50.150;8.756;2024-01-11T18:31:13;2.50;99.90
17172;DHT22;8701;50.150;8.756;2024-01-11T18:35:15;2.50;99.90
17172;DHT22;8701;50.150;8.756;2024-01-11T18:39:19;2.50;99.90
17172;DHT22;8701;50.150;8.756;2024-01-11T18:43:21;2.40;99.90
17172;DHT22;8701;50.150;8.756;2024-01-11T18:47:24;2.40;99.90
17172;DHT22;8701;50.150;8.756;2024-01-11T18:51:26;2.40;99.90
17172;DHT22;8701;50.150;8.756;2024-01-11T18:55:30;2.40;99.90
17172;DHT22;8701;50.150;8.756;2024-01-11T18:59:32;2.40;99.90
17172;DHT22;8701;50.150;8.756;2024-01-11T19:03:35;2.40;99.90
17172;DHT22;8701;50.150;8.756;2024-01-11T19:07:38;2.30;99.90
17172;DHT22;8701;50.150;8.756;2024-01-11T19:11:42;2.20;99.90
17172;DHT22;8701;50.150;8.756;2024-01-11T19:15:45;2.20;99.90
17172;DHT22;8701;50.150;8.756;2024-01-11T19:19:49;2.20;99.90
17172;DHT22;8701;50.150;8.756;2024-01-11T19:23:51;2.10;99.90
17172;DHT22;8701;50.150;8.756;2024-01-11T19:27:55;2.00;99.90
17172;DHT22;8701;50.150;8.756;2024-01-11T19:32:01;2.00;99.90
17172;DHT22;8701;50.150;8.756;2024-01-11T19:36:04;2.00;99.90
17172;DHT22;8701;50.150;8.756;2024-01-11T19:40:07;1.90;99.90
17172;DHT22;8701;50.150;8.756;2024-01-11T19:44:11;1.90;99.90
17172;DHT22;8701;50.150;8.756;2024-01-11T19:48:13;1.90;99.90
17172;DHT22;8701;50.150;8.756;2024-01-11T19:52:17;1.80;99.90
17172;DHT22;8701;50.150;8.756;2024-01-11T19:56:21;1.90;99.90
17172;DHT22;8701;50.150;8.756;2024-01-11T20:00:25;1.80;99.90
17172;DHT22;8701;50.150;8.756;2024-01-11T20:04:28;1.80;99.90
17172;DHT22;8701;50.150;8.756;2024-01-11T20:08:33;1.80;99.90
17172;DHT22;8701;50.150;8.756;2024-01-11T20:12:35;1.80;99.90
17172;DHT22;8701;50.150;8.756;2024-01-11T20:16:39;1.80;99.90
17172;DHT22;8701;50.150;8.756;2024-01-11T20:20:42;1.80;99.90
17172;DHT22;8701;50.150;8.756;2024-01-11T20:24:47;1.60;99.90
17172;DHT22;8701;50.150;8.756;2024-01-11T20:28:50;1.40;99.90
17172;DHT22;8701;50.150;8.756;2024-01-11T20:32:53;1.40;99.90
17172;DHT22;8701;50.150;8.756;2024-01-11T20:36:56;1.30;99.90
17172;DHT22;8701;50.150;8.756;2024-01-11T20:40:59;1.20;99.90
17172;DHT22;8701;50.150;8.756;2024-01-11T20:45:03;1.20;99.90
17172;DHT22;8701;50.150;8.756;2024-01-11T20:49:06;1.20;99.90
17172;DHT22;8701;50.150;8.756;2024-01-11T20:53:09;1.20;99.90
17172;DHT22;8701;50.150;8.756;2024-01-11T20:57:11;1.10;99.90
17172;DHT22;8701;50.150;8.756;2024-01-11T21:01:14;1.10;99.90
17172;DHT22;8701;50.150;8.756;2024-01-11T21:05:18;1.20;99.90
17172;DHT22;8701;50.150;8.756;2024-01-11T21:09:21;1.40;99.90
17172;DHT22;8701;50.150;8.756;2024-01-11T21:13:23;1.40;99.90
17172;DHT22;8701;50.150;8.756;2024-01-11T21:17:26;1.40;99.90
17172;DHT22;8701;50.150;8.756;2024-01-11T21:21:29;1.40;99.90
17172;DHT22;8701;50.150;8.756;2024-01-11T21:25:32;1.40;99.90
17172;DHT22;8701;50.150;8.756;2024-01-11T21:29:35;1.30;99.90
17172;DHT22;8701;50.150;8.756;2024-01-11T21:33:42;1.30;99.90
17172;DHT22;8701;50.150;8.756;2024-01-11T21:37:46;1.40;99.90
17172;DHT22;8701;50.150;8.756;2024-01-11T21:41:48;1.40;99.90
17172;DHT22;8701;50.150;8.756;2024-01-11T21:45:51;1.50;99.90
17172;DHT22;8701;50.150;8.756;2024-01-11T21:49:53;1.60;99.90
17172;DHT22;8701;50.150;8.756;2024-01-11T21:53:57;1.70;99.90
17172;DHT22;8701;50.150;8.756;2024-01-11T21:58:00;1.80;99.90
17172;DHT22;8701;50.150;8.756;2024-01-11T22:02:02;1.80;99.90
17172;DHT22;8701;50.150;8.756;2024-01-11T22:06:05;1.90;99.90
17172;DHT22;8701;50.150;8.756;2024-01-11T22:10:09;2.00;99.90
17172;DHT22;8701;50.150;8.756;2024-01-11T22:14:11;2.10;99.90
17172;DHT22;8701;50.150;8.756;2024-01-11T22:18:13;2.10;99.90
17172;DHT22;8701;50.150;8.756;2024-01-11T22:22:16;2.10;99.90
17172;DHT22;8701;50.150;8.756;2024-01-11T22:26:23;2.10;99.90
17172;DHT22;8701;50.150;8.756;2024-01-11T22:30:27;2.20;99.90
17172;DHT22;8701;50.150;8.756;2024-01-11T22:34:29;2.20;99.90
17172;DHT22;8701;50.150;8.756;2024-01-11T22:38:31;2.30;99.90
17172;DHT22;8701;50.150;8.756;2024-01-11T22:42:35;2.30;99.90
17172;DHT22;8701;50.150;8.756;2024-01-11T22:46:37;2.30;99.90
17172;DHT22;8701;50.150;8.756;2024-01-11T22:50:40;2.30;99.90
17172;DHT22;8701;50.150;8.756;2024-01-11T22:54:43;2.30;99.90
17172;DHT22;8701;50.150;8.756;2024-01-11T22:58:46;2.50;99.90
17172;DHT22;8701;50.150;8.756;2024-01-11T23:02:49;2.30;99.90
17172;DHT22;8701;50.150;8.756;2024-01-11T23:06:51;2.40;99.90
17172;DHT22;8701;50.150;8.756;2024-01-11T23:10:54;2.40;99.90
17172;DHT22;8701;50.150;8.756;2024-01-11T23:14:58;2.40;99.90
17172;DHT22;8701;50.150;8.756;2024-01-11T23:19:01;2.40;99.90
17172;DHT22;8701;50.150;8.756;2024-01-11T23:23:03;2.40;99.90
17172;DHT22;8701;50.150;8.756;2024-01-11T23:27:05;2.40;99.90
17172;DHT22;8701;50.150;8.756;2024-01-11T23:31:11;2.40;99.90
17172;DHT22;8701;50.150;8.756;2024-01-11T23:35:13;2.40;99.90
17172;DHT22;8701;50.150;8.756;2024-01-11T23:39:15;2.40;99.90
17172;DHT22;8701;50.150;8.756;2024-01-11T23:43:18;2.40;99.90
17172;DHT22;8701;50.150;8.756;2024-01-11T23:47:21;2.40;99.90
17172;DHT22;8701;50.150;8.756;2024-01-11T23:51:24;2.40;99.90
17172;DHT22;8701;50.150;8.756;2024-01-11T23:55:26;2.50;99.90
17172;DHT22;8701;50.150;8.756;2024-01-11T23:59:28;2.50;99.90
